Time;durP1;ratioP1;P1;durP2;ratioP2;P2;SDS_P1;SDS_P2;PMS_P1;PMS_P2;Temp;Humidity;BMP_temperature;BMP_pressure;BME280_temperature;BME280_humidity;BME280_pressure;Samples;Min_cycle;Max_cycle;Signal;HPM_P1;HPM_P2
2023/01/03 00:01:07;;;;;;;8.50;5.33;;;9.10;99.90;;;;;;8338114;28;20241;-87
2023/01/03 00:05:11;;;;;;;9.43;5.67;;;9.10;99.90;;;;;;8339113;28;20213;-86
2023/01/03 00:09:15;;;;;;;8.73;5.07;;;9.20;99.90;;;;;;8338474;28;20190;-86
2023/01/03 00:13:15;;;;;;;7.77;4.97;;;9.20;99.90;;;;;;8332798;28;20206;-86
2023/01/03 00:17:18;;;;;;;8.20;5.33;;;9.20;99.90;;;;;;8329519;28;20249;-86
2023/01/03 00:21:19;;;;;;;6.03;4.77;;;9.20;99.90;;;;;;8335198;28;20189;-86
2023/01/03 00:25:20;;;;;;;6.50;4.17;;;9.20;99.90;;;;;;8334236;28;20186;-86
2023/01/03 00:29:22;;;;;;;4.43;3.37;;;9.20;99.90;;;;;;8347757;28;20190;-86
2023/01/03 00:33:23;;;;;;;5.50;3.37;;;9.20;99.90;;;;;;8347091;28;20214;-86
2023/01/03 00:37:24;;;;;;;4.43;2.80;;;9.20;99.90;;;;;;8341177;28;20212;-86
2023/01/03 00:41:25;;;;;;;3.03;2.37;;;9.20;99.90;;;;;;8346246;28;20228;-87
2023/01/03 00:45:26;;;;;;;2.13;1.93;;;9.10;99.90;;;;;;8346513;28;20190;-86
2023/01/03 00:49:27;;;;;;;2.47;2.00;;;9.20;99.90;;;;;;8346452;28;20182;-86
2023/01/03 00:53:28;;;;;;;1.90;1.63;;;9.20;99.90;;;;;;8322354;28;20202;-85
2023/01/03 00:57:28;;;;;;;5.63;2.23;;;9.10;99.90;;;;;;8337829;28;20198;-85
2023/01/03 01:01:35;;;;;;;3.03;2.50;;;9.10;99.90;;;;;;8339482;28;20200;-86
2023/01/03 01:05:35;;;;;;;5.13;2.40;;;9.00;99.90;;;;;;8337787;28;20217;-86
2023/01/03 01:09:37;;;;;;;2.20;1.73;;;8.90;99.90;;;;;;8337900;28;20182;-85
2023/01/03 01:13:38;;;;;;;5.77;2.37;;;9.00;99.90;;;;;;8340861;28;20189;-85
2023/01/03 01:17:40;;;;;;;2.20;2.00;;;9.00;99.90;;;;;;8340638;28;20214;-85
2023/01/03 01:21:42;;;;;;;2.97;1.70;;;8.90;99.90;;;;;;8329508;28;20221;-86
2023/01/03 01:25:43;;;;;;;3.00;2.07;;;8.90;99.90;;;;;;8346129;28;20189;-85
2023/01/03 01:29:44;;;;;;;3.43;1.67;;;8.80;99.90;;;;;;8340395;28;20182;-85
2023/01/03 01:33:45;;;;;;;2.80;1.70;;;8.80;99.90;;;;;;8331026;28;20201;-85
2023/01/03 01:37:45;;;;;;;2.93;1.90;;;8.80;99.90;;;;;;8338411;28;20197;-85
2023/01/03 01:46:26;;;;;;;2.30;1.67;;;8.70;99.90;;;;;;8337108;28;20218;-85
2023/01/03 01:50:27;;;;;;;1.93;1.70;;;8.60;99.90;;;;;;8338026;28;20280;-85
2023/01/03 01:54:29;;;;;;;2.20;1.57;;;8.50;99.90;;;;;;8340441;28;20529;-85
2023/01/03 01:58:34;;;;;;;2.50;1.37;;;8.50;99.90;;;;;;8341277;28;20521;-86
2023/01/03 02:02:35;;;;;;;1.50;1.17;;;8.30;99.90;;;;;;8337287;28;20256;-86
2023/01/03 02:06:38;;;;;;;2.57;1.70;;;8.20;99.90;;;;;;8333952;28;20748;-85
2023/01/03 02:10:58;;;;;;;2.27;1.43;;;8.20;99.90;;;;;;8338239;28;20233;-86
2023/01/03 02:15:11;;;;;;;2.03;1.60;;;8.20;99.90;;;;;;8356354;28;20186;-86
2023/01/03 02:19:54;;;;;;;2.40;1.70;;;8.20;99.90;;;;;;8330150;28;20201;-86
2023/01/03 02:24:42;;;;;;;1.70;1.40;;;8.10;99.90;;;;;;8325282;28;20312;-85
2023/01/03 02:28:52;;;;;;;3.27;1.93;;;8.10;99.90;;;;;;8294739;28;20196;-85
2023/01/03 02:33:01;;;;;;;2.30;1.83;;;8.00;99.90;;;;;;8384307;28;20203;-86
2023/01/03 02:37:17;;;;;;;3.53;1.70;;;8.00;99.90;;;;;;8380693;28;20194;-86
2023/01/03 02:41:21;;;;;;;2.20;1.87;;;7.90;99.90;;;;;;8377685;28;20198;-86
2023/01/03 02:45:42;;;;;;;2.33;2.07;;;7.80;99.90;;;;;;8373987;28;20206;-86
2023/01/03 02:49:47;;;;;;;1.77;1.67;;;7.70;99.90;;;;;;8373749;28;20249;-86
2023/01/03 02:53:50;;;;;;;2.17;1.97;;;7.60;99.90;;;;;;8356841;28;20218;-87
2023/01/03 02:58:04;;;;;;;2.10;1.83;;;7.60;99.90;;;;;;8347304;28;20226;-85
2023/01/03 03:02:08;;;;;;;2.30;1.70;;;7.40;99.90;;;;;;8343147;28;20221;-87
2023/01/03 03:06:27;;;;;;;3.70;1.47;;;7.40;99.90;;;;;;8350219;28;20181;-87
2023/01/03 03:14:53;;;;;;;2.23;2.00;;;7.30;99.90;;;;;;8338190;28;20269;-87
2023/01/03 03:19:13;;;;;;;2.50;1.77;;;7.30;99.90;;;;;;8335826;28;20208;-87
2023/01/03 03:32:13;;;;;;;2.63;2.10;;;7.50;99.90;;;;;;8316551;28;20198;-86
2023/01/03 03:36:33;;;;;;;2.60;2.23;;;7.60;99.90;;;;;;8325087;28;20332;-86
2023/01/03 03:45:34;;;;;;;1.93;1.73;;;7.80;99.90;;;;;;8336703;28;20321;-86
2023/01/03 03:49:37;;;;;;;2.30;1.63;;;7.90;99.90;;;;;;8349919;28;20196;-87
2023/01/03 03:53:40;;;;;;;2.50;1.30;;;8.00;99.90;;;;;;8340737;28;20201;-86
2023/01/03 03:58:10;;;;;;;1.77;1.60;;;8.00;99.90;;;;;;8327785;28;20189;-86
2023/01/03 04:02:13;;;;;;;2.10;1.90;;;8.00;99.90;;;;;;8343050;28;20245;-86
2023/01/03 04:06:21;;;;;;;2.50;2.00;;;8.00;99.90;;;;;;8334089;28;20189;-86
2023/01/03 04:10:23;;;;;;;2.70;1.97;;;8.10;99.90;;;;;;8338869;28;20225;-86
2023/01/03 04:14:23;;;;;;;3.63;2.27;;;8.10;99.90;;;;;;8358577;28;20192;-86
2023/01/03 04:18:24;;;;;;;2.33;2.00;;;8.10;99.90;;;;;;8344361;28;20189;-86
2023/01/03 04:22:25;;;;;;;3.47;2.30;;;8.10;99.90;;;;;;8336976;28;20301;-86
2023/01/03 04:26:26;;;;;;;3.17;2.57;;;8.10;99.90;;;;;;8344438;28;20201;-86
2023/01/03 04:30:27;;;;;;;2.30;2.00;;;8.10;99.90;;;;;;8334901;28;20194;-86
2023/01/03 04:34:27;;;;;;;3.10;2.40;;;8.10;99.90;;;;;;8337929;28;20213;-86
2023/01/03 04:38:28;;;;;;;2.80;2.03;;;8.10;99.90;;;;;;8343881;28;20220;-85
2023/01/03 04:46:48;;;;;;;2.70;2.40;;;8.10;99.90;;;;;;8340536;28;20266;-87
2023/01/03 04:50:53;;;;;;;3.77;2.30;;;8.10;99.90;;;;;;8337234;28;20175;-87
2023/01/03 04:54:54;;;;;;;3.30;2.70;;;8.10;99.90;;;;;;8341917;28;20186;-86
2023/01/03 04:58:55;;;;;;;3.50;2.83;;;8.10;99.90;;;;;;8346338;28;20185;-87
2023/01/03 05:02:56;;;;;;;2.67;2.30;;;8.10;99.90;;;;;;8344322;28;20352;-87
2023/01/03 05:06:57;;;;;;;5.53;2.30;;;8.10;99.90;;;;;;8339728;28;20185;-87
2023/01/03 05:10:58;;;;;;;2.50;2.30;;;8.10;99.90;;;;;;8342923;28;20182;-87
2023/01/03 05:14:58;;;;;;;2.27;2.00;;;8.10;99.90;;;;;;8336834;28;20280;-87
2023/01/03 05:18:59;;;;;;;2.87;2.13;;;8.00;99.90;;;;;;8342312;28;20609;-86
2023/01/03 05:27:19;;;;;;;2.97;2.23;;;8.00;99.90;;;;;;8342751;28;20193;-86
2023/01/03 05:31:20;;;;;;;3.33;2.60;;;8.10;99.90;;;;;;8342897;28;20178;-87
2023/01/03 05:35:21;;;;;;;2.37;1.90;;;8.00;99.90;;;;;;8358649;28;20522;-87
2023/01/03 05:39:22;;;;;;;3.93;3.53;;;8.00;99.90;;;;;;8375781;28;20201;-87
2023/01/03 05:43:22;;;;;;;3.20;2.70;;;8.00;99.90;;;;;;8380271;28;20225;-87
2023/01/03 05:47:24;;;;;;;3.37;2.47;;;8.00;99.90;;;;;;8379817;28;20274;-88
2023/01/03 05:51:25;;;;;;;3.20;2.80;;;8.00;99.90;;;;;;8367016;28;20193;-86
2023/01/03 05:55:26;;;;;;;3.50;2.80;;;8.00;99.90;;;;;;8365690;28;20192;-87
2023/01/03 05:59:26;;;;;;;4.23;2.90;;;8.00;99.90;;;;;;8353863;28;20262;-86
2023/01/03 06:03:27;;;;;;;3.87;2.90;;;8.00;99.90;;;;;;8341065;28;20198;-87
2023/01/03 06:07:30;;;;;;;4.20;2.77;;;8.00;99.90;;;;;;8342438;28;20186;-87
2023/01/03 06:11:30;;;;;;;4.07;2.87;;;7.90;99.90;;;;;;8346112;28;20193;-87
2023/01/03 06:15:31;;;;;;;3.80;3.40;;;7.90;99.90;;;;;;8332209;28;20432;-87
2023/01/03 06:19:32;;;;;;;3.63;2.80;;;7.90;99.90;;;;;;8336812;28;20218;-87
2023/01/03 06:23:33;;;;;;;4.27;3.03;;;8.00;99.90;;;;;;8330554;28;20213;-87
2023/01/03 06:27:33;;;;;;;4.43;3.20;;;8.00;99.90;;;;;;8339861;28;20187;-87
2023/01/03 06:31:34;;;;;;;5.93;3.43;;;8.00;99.90;;;;;;8341802;28;20276;-86
2023/01/03 06:35:37;;;;;;;3.77;3.07;;;8.00;99.90;;;;;;8337824;28;20375;-86
2023/01/03 06:39:38;;;;;;;3.77;2.90;;;8.00;99.90;;;;;;8331310;28;20269;-87
2023/01/03 06:43:40;;;;;;;5.63;3.40;;;7.90;99.90;;;;;;8334144;28;21391;-87
2023/01/03 06:56:22;;;;;;;5.23;3.47;;;7.80;99.90;;;;;;8337580;28;20627;-86
2023/01/03 07:00:22;;;;;;;6.47;3.73;;;7.70;99.90;;;;;;8337593;28;20194;-87
2023/01/03 07:04:24;;;;;;;5.40;3.97;;;7.70;99.90;;;;;;8352270;28;20244;-87
2023/01/03 07:08:25;;;;;;;5.47;3.70;;;7.80;99.90;;;;;;8334029;28;20439;-86
2023/01/03 07:16:47;;;;;;;5.13;3.97;;;7.70;99.90;;;;;;8335461;28;20181;-77
2023/01/03 07:20:48;;;;;;;5.37;4.40;;;7.70;99.90;;;;;;8331680;28;20608;-77
2023/01/03 07:24:48;;;;;;;4.30;3.90;;;7.70;99.90;;;;;;8342983;28;20237;-78
2023/01/03 07:28:50;;;;;;;4.97;3.60;;;7.60;99.90;;;;;;8333770;28;20184;-79
2023/01/03 07:32:51;;;;;;;7.20;4.50;;;7.60;99.90;;;;;;8333156;28;20190;-79
2023/01/03 07:36:52;;;;;;;5.03;3.87;;;7.50;99.90;;;;;;8335107;28;20229;-80
2023/01/03 07:41:00;;;;;;;4.33;3.87;;;7.50;99.90;;;;;;8320351;28;20193;-80
2023/01/03 07:45:01;;;;;;;5.07;4.13;;;7.50;99.90;;;;;;8341496;28;20297;-80
2023/01/03 07:49:03;;;;;;;6.03;4.53;;;7.50;99.90;;;;;;8341425;28;20193;-81
2023/01/03 07:53:05;;;;;;;5.57;4.37;;;7.60;99.90;;;;;;8328318;28;20200;-80
2023/01/03 07:57:06;;;;;;;6.87;4.47;;;7.60;99.90;;;;;;8331019;28;20221;-81
2023/01/03 08:01:12;;;;;;;5.23;4.33;;;7.60;99.90;;;;;;8333897;28;20197;-79
2023/01/03 08:05:13;;;;;;;5.10;4.07;;;7.60;99.90;;;;;;8336710;28;20237;-80
2023/01/03 08:13:33;;;;;;;5.70;4.07;;;7.70;99.90;;;;;;8339030;28;20205;-80
2023/01/03 08:17:34;;;;;;;8.07;3.93;;;7.70;99.90;;;;;;8341288;28;20197;-79
2023/01/03 08:21:35;;;;;;;6.27;4.50;;;7.70;99.90;;;;;;8329065;28;20261;-81
2023/01/03 08:25:36;;;;;;;6.20;4.43;;;7.60;99.90;;;;;;8339517;28;20211;-80
2023/01/03 08:29:37;;;;;;;5.40;4.03;;;7.50;99.90;;;;;;8337010;28;20213;-80
2023/01/03 08:33:49;;;;;;;3.67;3.00;;;7.50;99.90;;;;;;8332363;28;20201;-79
2023/01/03 08:37:52;;;;;;;5.40;3.70;;;7.50;99.90;;;;;;8346749;28;20189;-81
2023/01/03 08:41:59;;;;;;;4.43;3.33;;;7.40;99.90;;;;;;8372208;28;20194;-80
2023/01/03 08:46:05;;;;;;;4.77;3.40;;;7.50;99.90;;;;;;8362990;28;20190;-79
2023/01/03 08:50:06;;;;;;;4.47;3.50;;;7.60;99.90;;;;;;8381198;28;20371;-79
2023/01/03 08:54:07;;;;;;;3.90;3.23;;;7.70;99.90;;;;;;8364818;28;20219;-81
2023/01/03 08:58:08;;;;;;;4.87;3.73;;;7.80;99.90;;;;;;8364917;28;20178;-81
2023/01/03 09:02:09;;;;;;;4.37;3.20;;;7.90;99.90;;;;;;8359490;28;20214;-79
2023/01/03 09:06:10;;;;;;;4.07;3.63;;;7.90;99.90;;;;;;8346716;28;20189;-79
2023/01/03 09:10:11;;;;;;;5.13;3.37;;;7.90;99.90;;;;;;8348349;28;20186;-79
2023/01/03 09:14:12;;;;;;;4.77;3.67;;;7.90;99.90;;;;;;8331436;28;20191;-80
2023/01/03 09:18:13;;;;;;;4.60;3.17;;;8.00;99.90;;;;;;8337594;28;20193;-80
2023/01/03 09:22:14;;;;;;;5.47;3.30;;;8.10;99.90;;;;;;8338791;28;20206;-80
2023/01/03 09:26:15;;;;;;;3.43;3.13;;;8.20;99.90;;;;;;8343167;28;20268;-80
2023/01/03 09:30:16;;;;;;;4.23;3.00;;;8.20;99.90;;;;;;8345178;28;20210;-80
2023/01/03 09:34:17;;;;;;;3.77;2.80;;;8.10;99.90;;;;;;8330747;28;20209;-81
2023/01/03 09:38:18;;;;;;;4.03;3.27;;;8.00;99.90;;;;;;8340673;28;20201;-80
2023/01/03 09:46:44;;;;;;;5.30;2.90;;;8.00;99.90;;;;;;8342161;28;20213;-80
2023/01/03 09:50:45;;;;;;;4.00;2.93;;;8.10;99.90;;;;;;8343526;28;20179;-80
2023/01/03 10:03:56;;;;;;;4.13;2.57;;;8.50;99.90;;;;;;8341838;28;20654;-81
2023/01/03 10:08:41;;;;;;;4.37;2.87;;;8.60;1.00;;;;;;8330806;28;20242;-79
2023/01/03 10:13:12;;;;;;;4.27;2.77;;;8.90;99.90;;;;;;8328183;28;20242;-81
2023/01/03 10:17:45;;;;;;;2.77;2.43;;;9.40;99.90;;;;;;8337389;28;20193;-81
2023/01/03 10:21:58;;;;;;;3.40;2.50;;;9.10;99.90;;;;;;8327292;28;20242;-81
2023/01/03 10:25:59;;;;;;;3.67;2.23;;;8.70;1.00;;;;;;8348629;28;20177;-80
2023/01/03 10:30:03;;;;;;;4.37;3.00;;;8.50;96.20;;;;;;8334549;28;20189;-81
2023/01/03 10:34:06;;;;;;;3.17;2.60;;;8.30;99.90;;;;;;8338932;28;20210;-79
2023/01/03 10:38:06;;;;;;;3.47;2.73;;;8.20;99.90;;;;;;8334042;28;20235;-80
2023/01/03 10:42:07;;;;;;;3.00;2.70;;;8.20;99.90;;;;;;8338324;28;20239;-80
2023/01/03 10:46:21;;;;;;;4.43;2.93;;;8.10;99.90;;;;;;8340860;28;20182;-80
2023/01/03 10:50:23;;;;;;;3.83;3.33;;;8.10;99.90;;;;;;8343120;28;20183;-80
2023/01/03 10:54:45;;;;;;;5.57;3.10;;;8.00;99.90;;;;;;8337710;28;20193;-80
2023/01/03 10:58:46;;;;;;;3.27;2.97;;;8.10;99.90;;;;;;8353864;28;20194;-80
2023/01/03 11:02:47;;;;;;;4.17;3.23;;;8.10;1.00;;;;;;8335144;28;20206;-80
2023/01/03 11:07:03;;;;;;;4.03;2.70;;;8.20;99.90;;;;;;8338643;28;20243;-80
2023/01/03 11:11:03;;;;;;;4.27;3.10;;;8.10;44.10;;;;;;8334279;28;20189;-80
2023/01/03 11:15:17;;;;;;;3.50;2.50;;;8.00;1.00;;;;;;8340990;28;20194;-80
2023/01/03 11:19:18;;;;;;;4.73;2.87;;;8.00;99.90;;;;;;8351423;28;20252;-81
2023/01/03 11:23:54;;;;;;;6.37;3.00;;;8.10;61.90;;;;;;8340793;28;20202;-80
2023/01/03 11:28:33;;;;;;;3.80;2.80;;;8.10;20.00;;;;;;8339287;28;20537;-80
2023/01/03 11:33:15;;;;;;;3.63;2.37;;;8.10;5.40;;;;;;8345355;28;20281;-79
2023/01/03 11:38:01;;;;;;;4.20;2.70;;;8.30;99.90;;;;;;8339420;28;20289;-79
2023/01/03 11:42:20;;;;;;;8.37;2.70;;;8.70;1.00;;;;;;8353500;28;20186;-80
2023/01/03 11:46:43;;;;;;;6.57;3.20;;;8.80;99.90;;;;;;8377404;28;20194;-79
2023/01/03 11:50:58;;;;;;;4.77;3.00;;;8.70;99.90;;;;;;8365758;28;20208;-79
2023/01/03 11:55:30;;;;;;;4.10;2.47;;;8.60;99.90;;;;;;8362222;28;20183;-80
2023/01/03 11:59:49;;;;;;;3.50;3.20;;;8.50;99.90;;;;;;8378993;28;20190;-80
2023/01/03 12:04:08;;;;;;;4.37;2.67;;;8.50;99.90;;;;;;8359875;28;20214;-81
2023/01/03 12:08:30;;;;;;;5.67;4.10;;;8.30;1.00;;;;;;8349300;28;20175;-80
2023/01/03 12:13:04;;;;;;;4.53;2.87;;;8.30;1.00;;;;;;8342405;28;20849;-80
2023/01/03 12:17:27;;;;;;;3.60;2.83;;;8.10;1.00;;;;;;8338565;28;20213;-81
2023/01/03 12:21:35;;;;;;;4.43;2.37;;;8.10;4.40;;;;;;8343056;28;20205;-79
2023/01/03 12:25:39;;;;;;;3.20;2.77;;;8.00;99.90;;;;;;8337295;28;20241;-80
2023/01/03 12:29:53;;;;;;;3.70;2.80;;;7.90;99.90;;;;;;8346660;28;20216;-80
2023/01/03 12:34:16;;;;;;;4.57;2.80;;;7.90;99.90;;;;;;8333787;28;20209;-80
2023/01/03 12:38:24;;;;;;;6.07;4.60;;;7.80;99.90;;;;;;8339775;28;20241;-80
2023/01/03 12:42:28;;;;;;;5.63;3.77;;;7.70;99.90;;;;;;8339797;28;20465;-79
2023/01/03 12:46:40;;;;;;;8.17;3.70;;;7.50;1.00;;;;;;8342515;28;20194;-80
2023/01/03 12:50:49;;;;;;;5.40;4.00;;;7.40;1.00;;;;;;8342856;28;20554;-80
2023/01/03 12:55:17;;;;;;;5.47;4.40;;;7.30;99.90;;;;;;8340296;28;20178;-81
2023/01/03 12:59:37;;;;;;;5.03;3.20;;;7.30;1.00;;;;;;8337755;28;20319;-80
2023/01/03 13:03:58;;;;;;;6.70;3.70;;;7.30;1.00;;;;;;8337195;28;20278;-79
2023/01/03 13:08:11;;;;;;;5.57;2.90;;;7.20;99.90;;;;;;8331739;28;20621;-80
2023/01/03 13:12:25;;;;;;;4.00;2.90;;;7.10;99.90;;;;;;8349415;28;20209;-80
2023/01/03 13:16:52;;;;;;;4.20;3.80;;;7.00;1.00;;;;;;8339938;28;20250;-81
2023/01/03 13:20:54;;;;;;;5.33;3.47;;;7.10;1.00;;;;;;8325518;28;20293;-79
2023/01/03 13:25:34;;;;;;;6.30;3.10;;;7.20;99.90;;;;;;8336945;28;20217;-80
2023/01/03 13:30:19;;;;;;;5.13;2.97;;;7.30;99.90;;;;;;8350340;28;20191;-79
2023/01/03 13:34:31;;;;;;;5.13;3.10;;;7.30;34.50;;;;;;8327376;28;20245;-80
2023/01/03 13:38:36;;;;;;;4.43;2.97;;;7.30;1.00;;;;;;8336627;28;20263;-80
2023/01/03 13:42:38;;;;;;;3.13;2.43;;;7.10;1.00;;;;;;8341093;28;20326;-79
2023/01/03 13:46:41;;;;;;;2.30;2.10;;;7.00;1.00;;;;;;8338112;28;20186;-80
2023/01/03 13:51:21;;;;;;;3.23;2.27;;;6.90;93.30;;;;;;8338197;28;20190;-79
2023/01/03 13:55:35;;;;;;;4.70;2.03;;;6.80;99.90;;;;;;8323522;28;20217;-81
2023/01/03 13:59:46;;;;;;;2.40;2.00;;;6.70;99.90;;;;;;8341814;28;20194;-79
2023/01/03 14:04:28;;;;;;;2.07;1.73;;;6.60;99.90;;;;;;8335098;28;20582;-80
2023/01/03 14:08:35;;;;;;;2.23;1.43;;;6.50;99.90;;;;;;8343323;28;20197;-79
2023/01/03 14:13:06;;;;;;;2.40;1.60;;;6.30;1.00;;;;;;8328982;28;20192;-80
2023/01/03 14:17:16;;;;;;;3.20;2.20;;;6.20;28.50;;;;;;8337163;28;20272;-80
2023/01/03 14:21:24;;;;;;;3.93;2.00;;;6.10;99.90;;;;;;8340234;28;20190;-80
2023/01/03 14:25:33;;;;;;;3.50;1.60;;;6.00;99.90;;;;;;8333997;28;20256;-80
2023/01/03 14:29:37;;;;;;;2.50;1.40;;;5.80;99.90;;;;;;8337041;28;20189;-78
2023/01/03 14:33:41;;;;;;;3.17;2.13;;;5.60;99.90;;;;;;8341639;28;20211;-80
2023/01/03 14:37:45;;;;;;;2.33;1.80;;;5.60;99.90;;;;;;8338279;28;20209;-80
2023/01/03 14:41:46;;;;;;;2.03;1.83;;;5.50;99.90;;;;;;8340715;28;20707;-81
2023/01/03 14:45:56;;;;;;;3.30;1.80;;;5.40;99.90;;;;;;8345111;28;20213;-80
2023/01/03 14:49:57;;;;;;;1.97;1.77;;;5.30;99.90;;;;;;8344186;28;20266;-80
2023/01/03 14:53:59;;;;;;;5.77;3.50;;;5.20;99.90;;;;;;8347011;28;20275;-80
2023/01/03 14:58:15;;;;;;;5.83;3.33;;;5.10;99.90;;;;;;8373460;28;20230;-80
2023/01/03 15:02:17;;;;;;;3.43;2.90;;;4.90;1.00;;;;;;8383483;28;20218;-81
2023/01/03 15:06:29;;;;;;;2.90;2.20;;;4.70;99.90;;;;;;8355084;28;20217;-80
2023/01/03 15:10:42;;;;;;;3.43;2.00;;;4.40;1.00;;;;;;8375823;28;20190;-80
2023/01/03 15:14:43;;;;;;;2.87;1.70;;;4.10;99.90;;;;;;8364730;28;20182;-80
2023/01/03 15:18:45;;;;;;;1.83;1.60;;;3.90;99.90;;;;;;8363750;28;20192;-80
2023/01/03 15:22:46;;;;;;;1.43;1.30;;;3.70;1.00;;;;;;8348539;28;20207;-80
2023/01/03 15:26:51;;;;;;;1.90;1.47;;;3.50;1.00;;;;;;8357147;28;20195;-80
2023/01/03 15:31:10;;;;;;;3.20;1.90;;;3.40;99.90;;;;;;8340747;28;20188;-87
2023/01/03 15:35:24;;;;;;;3.13;1.90;;;3.20;1.00;;;;;;8329505;28;20237;-87
2023/01/03 15:39:33;;;;;;;2.23;1.57;;;3.10;27.10;;;;;;8342531;28;20181;-87
2023/01/03 15:43:37;;;;;;;2.00;1.70;;;3.00;99.90;;;;;;8332554;28;20215;-88
2023/01/03 15:47:39;;;;;;;2.40;1.60;;;2.90;99.90;;;;;;8331267;28;20182;-88
2023/01/03 15:51:40;;;;;;;2.27;1.60;;;2.90;1.00;;;;;;8331355;28;20311;-88
2023/01/03 15:55:41;;;;;;;2.87;1.90;;;2.90;37.60;;;;;;8327324;28;20212;-87
2023/01/03 15:59:43;;;;;;;1.80;1.53;;;3.00;99.90;;;;;;8332587;28;20197;-87
2023/01/03 16:03:45;;;;;;;4.13;1.80;;;3.10;99.90;;;;;;8339358;28;20244;-87
2023/01/03 16:07:46;;;;;;;1.70;1.50;;;3.10;99.90;;;;;;8334365;28;21991;-87
2023/01/03 16:11:53;;;;;;;1.97;1.70;;;3.10;99.90;;;;;;8336677;28;20891;-87
2023/01/03 16:15:56;;;;;;;2.47;2.07;;;3.10;99.90;;;;;;8338321;28;20677;-86
2023/01/03 16:19:58;;;;;;;2.17;1.97;;;3.10;99.90;;;;;;8333800;28;20183;-86
2023/01/03 16:24:01;;;;;;;2.13;1.83;;;3.00;99.90;;;;;;8335028;28;20202;-89
2023/01/03 16:28:02;;;;;;;2.40;1.60;;;2.80;1.00;;;;;;8324272;28;20182;-87
2023/01/03 16:32:03;;;;;;;2.43;1.40;;;2.60;1.00;;;;;;8338021;28;20189;-87
2023/01/03 16:36:05;;;;;;;1.90;1.53;;;2.40;99.90;;;;;;8325443;28;20260;-88
2023/01/03 16:40:17;;;;;;;2.13;1.30;;;2.30;10.00;;;;;;8337591;28;20186;-87
2023/01/03 16:44:18;;;;;;;1.87;1.37;;;2.10;1.00;;;;;;8331575;28;20209;-87
2023/01/03 16:48:22;;;;;;;1.77;1.63;;;2.00;99.90;;;;;;8336806;28;20274;-88
2023/01/03 16:52:45;;;;;;;2.47;1.67;;;1.90;99.90;;;;;;8328640;28;20194;-88
2023/01/03 16:56:46;;;;;;;3.33;1.97;;;1.80;1.00;;;;;;8326982;28;20233;-87
2023/01/03 17:00:47;;;;;;;3.40;2.10;;;1.70;99.90;;;;;;8331707;28;20300;-87
2023/01/03 17:04:48;;;;;;;3.10;1.83;;;1.60;1.00;;;;;;8331639;28;20209;-88
2023/01/03 17:08:49;;;;;;;2.23;1.60;;;1.50;99.90;;;;;;8331308;28;20268;-87
2023/01/03 17:12:50;;;;;;;2.93;1.77;;;1.50;59.80;;;;;;8336877;28;20599;-88
2023/01/03 17:16:51;;;;;;;3.50;2.30;;;1.30;99.90;;;;;;8337280;28;20776;-87
2023/01/03 17:20:56;;;;;;;4.37;3.10;;;1.30;99.90;;;;;;8337916;28;20182;-87
2023/01/03 17:24:57;;;;;;;3.17;2.13;;;1.20;99.90;;;;;;8336458;28;20514;-87
2023/01/03 17:29:01;;;;;;;2.83;2.20;;;1.10;99.90;;;;;;8337410;28;20268;-86
2023/01/03 17:33:02;;;;;;;5.20;3.03;;;1.00;99.90;;;;;;8338315;28;20189;-87
2023/01/03 17:37:03;;;;;;;5.63;3.87;;;0.90;99.90;;;;;;8337901;28;20299;-87
2023/01/03 17:41:04;;;;;;;9.80;4.97;;;0.90;1.00;;;;;;8341481;28;20190;-87
2023/01/03 17:49:28;;;;;;;10.93;6.13;;;0.80;78.30;;;;;;8352072;28;20200;-88
2023/01/03 17:53:29;;;;;;;12.47;7.23;;;0.90;99.90;;;;;;8340974;28;20187;-87
2023/01/03 17:57:31;;;;;;;12.53;6.73;;;1.00;99.90;;;;;;8337299;28;20193;-87
2023/01/03 18:01:32;;;;;;;12.00;7.10;;;1.10;99.90;;;;;;8349315;28;20266;-87
2023/01/03 18:05:35;;;;;;;10.47;6.73;;;1.10;99.90;;;;;;8339252;28;20240;-87
2023/01/03 18:09:36;;;;;;;10.33;6.30;;;1.20;99.90;;;;;;8342991;28;20247;-87
2023/01/03 18:13:37;;;;;;;10.13;6.00;;;1.10;99.90;;;;;;8343707;28;20183;-86
2023/01/03 18:17:38;;;;;;;9.43;5.80;;;1.10;99.90;;;;;;8347282;28;20190;-87
2023/01/03 18:21:39;;;;;;;10.07;5.93;;;1.10;99.90;;;;;;8378217;28;20182;-88
2023/01/03 18:25:40;;;;;;;11.77;6.50;;;1.00;99.90;;;;;;8378372;28;20429;-89
2023/01/03 18:29:41;;;;;;;30.77;13.30;;;1.00;99.90;;;;;;8374992;28;20193;-88
2023/01/03 18:33:42;;;;;;;27.73;12.70;;;0.90;99.90;;;;;;8372875;28;20217;-87
2023/01/03 18:37:44;;;;;;;17.60;8.80;;;0.90;99.90;;;;;;8374657;28;20200;-88
2023/01/03 18:41:48;;;;;;;11.87;7.13;;;0.80;99.90;;;;;;8360229;28;20213;-87
2023/01/03 18:45:50;;;;;;;13.53;7.70;;;0.70;99.90;;;;;;8354967;28;20210;-85
2023/01/03 18:49:50;;;;;;;14.70;8.10;;;0.60;99.90;;;;;;8345460;28;20229;-86
2023/01/03 18:53:55;;;;;;;18.83;10.80;;;0.50;99.90;;;;;;8350535;28;20208;-88
2023/01/03 18:58:07;;;;;;;18.83;11.17;;;0.50;99.90;;;;;;8353503;28;20182;-88
2023/01/03 19:02:16;;;;;;;20.00;12.53;;;0.60;99.90;;;;;;8347784;28;20189;-86
2023/01/03 19:06:31;;;;;;;20.77;12.20;;;0.90;99.90;;;;;;8318781;28;20186;-87
2023/01/03 19:10:32;;;;;;;21.70;12.13;;;1.10;99.90;;;;;;8338808;28;20193;-87
2023/01/03 19:14:36;;;;;;;17.83;10.70;;;1.20;99.90;;;;;;8333166;28;20204;-86
2023/01/03 19:18:37;;;;;;;22.27;12.00;;;1.00;99.90;;;;;;8337252;28;20189;-86
2023/01/03 19:22:39;;;;;;;20.43;11.70;;;0.90;99.90;;;;;;8329437;28;20202;-86
2023/01/03 19:26:48;;;;;;;21.50;12.40;;;0.90;99.90;;;;;;8339311;28;20186;-88
2023/01/03 19:30:50;;;;;;;25.90;12.97;;;0.90;99.90;;;;;;8334373;28;20186;-87
2023/01/03 19:34:51;;;;;;;22.83;12.10;;;0.90;99.90;;;;;;8334710;28;20228;-89
2023/01/03 19:38:52;;;;;;;22.17;12.50;;;0.80;99.90;;;;;;8339206;28;20253;-88
2023/01/03 19:42:55;;;;;;;21.23;12.30;;;0.80;99.90;;;;;;8342340;28;20205;-86
2023/01/03 19:46:59;;;;;;;29.23;14.83;;;0.80;99.90;;;;;;8345491;28;20180;-87
2023/01/03 19:51:00;;;;;;;31.13;16.77;;;0.80;99.90;;;;;;8338166;28;20186;-86
2023/01/03 19:55:00;;;;;;;29.40;15.00;;;1.00;99.90;;;;;;8340451;28;20255;-87
2023/01/03 19:59:03;;;;;;;23.70;13.20;;;0.90;99.90;;;;;;8334038;28;20519;-86
2023/01/03 20:03:10;;;;;;;26.10;13.67;;;0.80;99.90;;;;;;8349047;28;20271;-88
2023/01/03 20:07:14;;;;;;;21.27;12.40;;;0.80;99.90;;;;;;8339490;28;20190;-86
2023/01/03 20:11:18;;;;;;;25.80;12.83;;;0.90;99.90;;;;;;8329732;28;20173;-88
2023/01/03 20:15:23;;;;;;;26.47;14.17;;;1.00;99.90;;;;;;8334810;28;20188;-87
2023/01/03 20:19:24;;;;;;;23.57;13.13;;;1.10;99.90;;;;;;8336611;28;20187;-88
2023/01/03 20:23:29;;;;;;;21.87;11.43;;;1.00;99.90;;;;;;8333279;28;20206;-88
2023/01/03 20:27:30;;;;;;;22.30;11.03;;;0.90;99.90;;;;;;8338076;28;20186;-87
2023/01/03 20:31:31;;;;;;;19.40;10.83;;;0.80;99.90;;;;;;8341343;28;20192;-88
2023/01/03 20:35:33;;;;;;;23.00;11.97;;;0.80;99.90;;;;;;8334439;28;20226;-88
2023/01/03 20:39:35;;;;;;;15.53;9.87;;;0.70;99.90;;;;;;8335309;28;20193;-87
2023/01/03 20:43:36;;;;;;;18.67;11.17;;;0.60;99.90;;;;;;8340555;28;20253;-86
2023/01/03 20:47:39;;;;;;;17.73;10.40;;;0.80;99.90;;;;;;8336919;28;20233;-87
2023/01/03 20:51:40;;;;;;;17.83;10.37;;;0.70;99.90;;;;;;8342506;28;20179;-87
2023/01/03 20:55:41;;;;;;;20.23;9.87;;;0.70;99.90;;;;;;8337748;28;20190;-86
2023/01/03 20:59:42;;;;;;;18.97;11.30;;;0.60;99.90;;;;;;8340447;28;20193;-87
2023/01/03 21:03:43;;;;;;;22.70;11.63;;;0.70;99.90;;;;;;8336330;28;20315;-88
2023/01/03 21:12:04;;;;;;;21.60;10.40;;;1.20;99.90;;;;;;8338780;28;20186;-87
2023/01/03 21:16:35;;;;;;;20.83;10.70;;;1.40;99.90;;;;;;8342186;28;20316;-87
2023/01/03 21:20:36;;;;;;;20.00;11.10;;;1.60;99.90;;;;;;8345163;28;20235;-86
2023/01/03 21:24:37;;;;;;;15.60;10.30;;;1.70;99.90;;;;;;8350233;28;20221;-86
2023/01/03 21:28:38;;;;;;;17.07;11.20;;;2.00;99.90;;;;;;8344811;28;20285;-86
2023/01/03 21:32:39;;;;;;;18.97;11.47;;;2.20;99.90;;;;;;8372490;28;20192;-88
2023/01/03 21:36:40;;;;;;;17.27;10.90;;;2.40;99.90;;;;;;8384985;28;20222;-88
2023/01/03 21:40:40;;;;;;;17.07;10.40;;;2.50;99.90;;;;;;8378914;28;20182;-89
2023/01/03 21:44:41;;;;;;;17.53;10.90;;;2.70;99.90;;;;;;8380390;28;20257;-86
2023/01/03 21:48:42;;;;;;;19.43;11.63;;;2.80;99.90;;;;;;8370201;28;20209;-88
2023/01/03 21:52:43;;;;;;;16.83;10.83;;;2.80;99.90;;;;;;8365332;28;20190;-87
2023/01/03 21:56:44;;;;;;;14.57;9.13;;;2.90;99.90;;;;;;8353382;28;20192;-88
2023/01/03 22:00:45;;;;;;;14.07;9.37;;;3.00;99.90;;;;;;8339193;28;20190;-86
2023/01/03 22:04:46;;;;;;;16.70;9.27;;;3.10;99.90;;;;;;8339177;28;20218;-87
2023/01/03 22:08:47;;;;;;;17.13;10.67;;;3.30;99.90;;;;;;8336425;28;20186;-86
2023/01/03 22:13:08;;;;;;;19.60;10.97;;;3.40;99.90;;;;;;8349792;28;20197;-87
2023/01/03 22:17:09;;;;;;;21.07;11.60;;;3.50;99.90;;;;;;8339948;28;20199;-86
2023/01/03 22:21:10;;;;;;;14.53;10.30;;;3.60;99.90;;;;;;8344538;28;20191;-87
2023/01/03 22:25:14;;;;;;;16.33;10.03;;;3.60;99.90;;;;;;8336832;28;20204;-87
2023/01/03 22:29:15;;;;;;;16.53;10.00;;;3.70;99.90;;;;;;8344338;28;20193;-86
2023/01/03 22:33:16;;;;;;;16.77;9.23;;;3.70;99.90;;;;;;8338528;28;20279;-86
2023/01/03 22:37:17;;;;;;;14.17;9.10;;;3.80;99.90;;;;;;8336772;28;20255;-86
2023/01/03 22:41:18;;;;;;;15.27;9.13;;;3.80;99.90;;;;;;8336638;28;20261;-86
2023/01/03 22:45:19;;;;;;;15.27;8.57;;;3.90;99.90;;;;;;8341213;28;20216;-87